Time;durP1;ratioP1;P1;durP2;ratioP2;P2;SDS_P1;SDS_P2;PMS_P1;PMS_P2;Temp;Humidity;BMP_temperature;BMP_pressure;BME280_temperature;BME280_humidity;BME280_pressure;Samples;Min_cycle;Max_cycle;Signal;HPM_P1;HPM_P2
2023/04/29 00:01:57;;;;;;;6.28;2.95;;;9.30;99.90;;;;;;5070244;28;20044;-68
2023/04/29 00:04:27;;;;;;;8.55;3.95;;;9.30;99.90;;;;;;5088325;28;20044;-68
2023/04/29 00:06:53;;;;;;;7.53;3.67;;;9.20;99.90;;;;;;5088758;28;20040;-68
2023/04/29 00:09:18;;;;;;;7.70;3.90;;;9.20;99.90;;;;;;5089187;28;20397;-67
2023/04/29 00:11:46;;;;;;;10.27;4.20;;;9.30;99.90;;;;;;5088127;28;20089;-68
2023/04/29 00:14:11;;;;;;;7.47;3.88;;;9.30;99.90;;;;;;5089725;28;20092;-68
2023/04/29 00:16:37;;;;;;;7.18;3.30;;;9.20;99.90;;;;;;5088945;28;20064;-68
2023/04/29 00:19:03;;;;;;;6.88;3.88;;;9.30;99.90;;;;;;5087934;28;20032;-68
2023/04/29 00:21:29;;;;;;;13.77;3.95;;;9.20;99.90;;;;;;5089520;28;20039;-67
2023/04/29 00:23:55;;;;;;;12.48;3.75;;;9.20;99.90;;;;;;5087965;28;20047;-68
2023/04/29 00:26:20;;;;;;;6.63;3.53;;;9.20;99.90;;;;;;5088202;28;20071;-67
2023/04/29 00:28:46;;;;;;;7.43;3.83;;;9.20;99.90;;;;;;5071512;28;20456;-68
2023/04/29 00:31:12;;;;;;;10.82;3.90;;;9.20;99.90;;;;;;5088516;28;20506;-68
2023/04/29 00:33:39;;;;;;;7.38;3.08;;;9.20;99.90;;;;;;5089414;28;20043;-67
2023/04/29 00:36:06;;;;;;;5.45;2.97;;;9.20;99.90;;;;;;5088102;28;20051;-68
2023/04/29 00:38:31;;;;;;;9.20;3.97;;;9.20;99.90;;;;;;5087234;28;20489;-68
2023/04/29 00:40:57;;;;;;;9.20;3.80;;;9.20;99.90;;;;;;5087699;28;20040;-68
2023/04/29 00:43:23;;;;;;;8.20;3.50;;;9.20;99.90;;;;;;5087651;28;20036;-68
2023/04/29 00:45:49;;;;;;;8.32;2.80;;;9.20;99.90;;;;;;5088540;28;20040;-68
2023/04/29 00:48:16;;;;;;;7.07;3.20;;;9.10;99.90;;;;;;5088926;28;20173;-68
2023/04/29 00:50:42;;;;;;;7.57;3.05;;;9.20;99.90;;;;;;5088583;28;20040;-68
2023/04/29 00:53:11;;;;;;;3.88;2.00;;;9.20;99.90;;;;;;5087894;28;20047;-68
2023/04/29 00:55:38;;;;;;;7.82;3.75;;;9.20;99.90;;;;;;5089249;28;20051;-68
2023/04/29 00:58:04;;;;;;;5.57;3.55;;;9.20;99.90;;;;;;5088197;28;20505;-68
2023/04/29 01:00:30;;;;;;;8.32;3.03;;;9.20;99.90;;;;;;5087673;28;20043;-68
2023/04/29 01:02:58;;;;;;;5.82;2.58;;;9.20;99.90;;;;;;5070872;28;20038;-68
2023/04/29 01:05:24;;;;;;;6.00;3.25;;;9.10;99.90;;;;;;5087179;28;20052;-68
2023/04/29 01:08:25;;;;;;;7.63;2.75;;;9.10;99.90;;;;;;5088869;28;20040;-68
2023/04/29 01:11:06;;;;;;;6.07;3.85;;;9.10;99.90;;;;;;5055321;28;20094;-67
2023/04/29 01:13:42;;;;;;;6.03;3.45;;;9.20;99.90;;;;;;5088004;28;20056;-67
2023/04/29 01:16:16;;;;;;;7.03;3.22;;;9.10;99.90;;;;;;5091512;28;20497;-67
2023/04/29 01:18:48;;;;;;;5.40;2.75;;;9.10;99.90;;;;;;5090880;28;20040;-67
2023/04/29 01:21:14;;;;;;;13.57;3.05;;;9.10;99.90;;;;;;5091763;28;20032;-67
2023/04/29 01:23:40;;;;;;;9.43;3.05;;;9.20;99.90;;;;;;5091717;28;20455;-68
2023/04/29 01:26:07;;;;;;;5.80;2.95;;;9.20;99.90;;;;;;5090741;28;20048;-68
2023/04/29 01:28:56;;;;;;;9.32;3.30;;;9.20;99.90;;;;;;5092957;28;20058;-68
2023/04/29 01:31:31;;;;;;;4.25;2.72;;;9.20;99.90;;;;;;4977554;28;20508;-68
2023/04/29 01:34:34;;;;;;;5.95;3.15;;;9.20;99.90;;;;;;5009399;28;20049;-67
2023/04/29 01:37:09;;;;;;;5.43;2.67;;;9.20;99.90;;;;;;5002411;28;20089;-68
2023/04/29 01:39:44;;;;;;;9.73;3.58;;;9.20;99.90;;;;;;4977040;28;20056;-67
2023/04/29 01:42:16;;;;;;;5.50;2.70;;;9.10;99.90;;;;;;4993764;28;20068;-67
2023/04/29 01:44:43;;;;;;;9.50;2.88;;;9.10;99.90;;;;;;4993311;28;20104;-68
2023/04/29 01:47:12;;;;;;;5.13;2.10;;;9.10;99.90;;;;;;4992973;28;20435;-67
2023/04/29 01:49:38;;;;;;;7.43;3.33;;;9.10;99.90;;;;;;4993398;28;20462;-68
2023/04/29 01:52:05;;;;;;;6.88;3.58;;;9.10;99.90;;;;;;5009634;28;20121;-68
2023/04/29 01:54:35;;;;;;;6.10;4.10;;;9.10;99.90;;;;;;4992646;28;20296;-68
2023/04/29 01:57:01;;;;;;;8.85;3.10;;;9.10;99.90;;;;;;4993521;28;20544;-68
2023/04/29 01:59:27;;;;;;;6.03;3.10;;;9.10;99.90;;;;;;5009581;28;20095;-68
2023/04/29 02:01:55;;;;;;;10.60;4.22;;;9.10;99.90;;;;;;4992684;28;20053;-68
2023/04/29 02:04:21;;;;;;;6.38;3.80;;;9.10;99.90;;;;;;5009530;28;20056;-69
2023/04/29 02:06:46;;;;;;;9.18;3.67;;;9.10;99.90;;;;;;5009455;28;20089;-68
2023/04/29 02:09:12;;;;;;;6.22;3.38;;;9.10;99.90;;;;;;5077853;28;20040;-68
2023/04/29 02:11:38;;;;;;;9.93;3.78;;;9.00;99.90;;;;;;5090508;28;20131;-68
2023/04/29 02:14:04;;;;;;;8.45;3.45;;;9.10;99.90;;;;;;5073408;28;20060;-68
2023/04/29 02:16:29;;;;;;;6.97;2.50;;;9.00;99.90;;;;;;5091377;28;20074;-68
2023/04/29 02:18:55;;;;;;;6.43;3.17;;;9.00;99.90;;;;;;5091869;28;20032;-68
2023/04/29 02:21:21;;;;;;;6.50;3.42;;;9.00;99.90;;;;;;5090524;28;20413;-68
2023/04/29 02:23:47;;;;;;;8.95;3.78;;;9.00;99.90;;;;;;5089632;28;20036;-68
2023/04/29 02:26:14;;;;;;;4.75;3.05;;;9.00;99.90;;;;;;5089465;28;20101;-68
2023/04/29 02:28:40;;;;;;;7.13;3.30;;;9.00;99.90;;;;;;5089559;28;20047;-68
2023/04/29 02:31:05;;;;;;;7.25;3.22;;;9.00;99.90;;;;;;5091703;28;20040;-68
2023/04/29 02:33:32;;;;;;;4.53;2.97;;;9.00;99.90;;;;;;5090232;28;20512;-68
2023/04/29 02:35:58;;;;;;;4.53;2.50;;;9.00;99.90;;;;;;5089490;28;20046;-68
2023/04/29 02:38:24;;;;;;;8.40;3.15;;;9.00;99.90;;;;;;5090534;28;20548;-68
2023/04/29 02:40:50;;;;;;;5.43;2.70;;;8.90;99.90;;;;;;5073222;28;20123;-68
2023/04/29 02:43:16;;;;;;;6.82;2.67;;;8.90;99.90;;;;;;5089460;28;20039;-68
2023/04/29 02:45:43;;;;;;;3.08;2.42;;;8.90;99.90;;;;;;5089844;28;20047;-68
2023/04/29 02:48:09;;;;;;;6.32;3.35;;;8.90;99.90;;;;;;5072955;28;20093;-68
2023/04/29 02:50:34;;;;;;;8.15;3.75;;;8.90;99.90;;;;;;5089434;28;20036;-68
2023/04/29 02:53:00;;;;;;;6.43;2.35;;;8.90;99.90;;;;;;5090915;28;20451;-68
2023/04/29 02:55:26;;;;;;;6.68;2.78;;;8.90;99.90;;;;;;5091111;28;20069;-68
2023/04/29 02:57:52;;;;;;;6.38;2.58;;;8.90;99.90;;;;;;5088957;28;20433;-68
2023/04/29 03:00:18;;;;;;;4.80;2.97;;;8.80;99.90;;;;;;5091088;28;20124;-68
2023/04/29 03:02:44;;;;;;;5.20;2.42;;;8.90;99.90;;;;;;5089835;28;20036;-68
2023/04/29 03:05:10;;;;;;;7.55;3.92;;;8.80;99.90;;;;;;5090403;28;20044;-68
2023/04/29 03:07:36;;;;;;;5.70;2.53;;;8.80;99.90;;;;;;5090894;28;20043;-68
2023/04/29 03:10:02;;;;;;;5.32;2.50;;;8.80;99.90;;;;;;5089360;28;20047;-68
2023/04/29 03:12:27;;;;;;;6.03;3.05;;;8.80;99.90;;;;;;5088579;28;20056;-68
2023/04/29 03:14:53;;;;;;;11.68;2.88;;;8.80;99.90;;;;;;5072392;28;20048;-68
2023/04/29 03:17:19;;;;;;;6.45;2.85;;;8.80;99.90;;;;;;5089363;28;20074;-68
2023/04/29 03:19:44;;;;;;;7.55;3.72;;;8.80;99.90;;;;;;5088635;28;20052;-69
2023/04/29 03:22:10;;;;;;;6.70;3.20;;;8.80;99.90;;;;;;5090710;28;20064;-68
2023/04/29 03:24:37;;;;;;;10.18;4.05;;;8.80;99.90;;;;;;5088750;28;20036;-69
2023/04/29 03:27:03;;;;;;;7.53;2.67;;;8.80;99.90;;;;;;5088999;28;20040;-68
2023/04/29 03:29:30;;;;;;;7.00;3.03;;;8.80;99.90;;;;;;5089009;28;20542;-68
2023/04/29 03:31:56;;;;;;;4.70;3.10;;;8.80;99.90;;;;;;5088531;28;20051;-68
2023/04/29 03:34:23;;;;;;;7.68;2.92;;;8.70;99.90;;;;;;5090423;28;20040;-68
2023/04/29 03:36:50;;;;;;;6.93;3.85;;;8.70;99.90;;;;;;5089496;28;20042;-68
2023/04/29 03:39:16;;;;;;;7.78;3.30;;;8.80;99.90;;;;;;5071869;28;20039;-68
2023/04/29 03:41:42;;;;;;;8.98;3.50;;;8.70;99.90;;;;;;5090397;28;20051;-68
2023/04/29 03:44:08;;;;;;;14.10;3.28;;;8.70;99.90;;;;;;5088996;28;20036;-68
2023/04/29 03:46:34;;;;;;;7.88;3.90;;;8.70;99.90;;;;;;5088387;28;20036;-69
2023/04/29 03:49:00;;;;;;;8.43;2.95;;;8.70;99.90;;;;;;5088677;28;20051;-69
2023/04/29 03:51:26;;;;;;;5.68;2.88;;;8.70;99.90;;;;;;5088751;28;20040;-69
2023/04/29 03:53:55;;;;;;;6.32;2.97;;;8.70;99.90;;;;;;5089405;28;20462;-69
2023/04/29 03:56:21;;;;;;;7.70;3.33;;;8.70;99.90;;;;;;5090041;28;20639;-69
2023/04/29 03:58:47;;;;;;;7.03;2.63;;;8.70;99.90;;;;;;5088687;28;20036;-69
2023/04/29 04:01:14;;;;;;;6.60;3.35;;;8.70;99.90;;;;;;5087738;28;20126;-69
2023/04/29 04:03:42;;;;;;;8.82;2.90;;;8.70;99.90;;;;;;5088239;28;20040;-69
2023/04/29 04:06:08;;;;;;;10.02;3.90;;;8.70;99.90;;;;;;5089821;28;20044;-69
2023/04/29 04:08:33;;;;;;;7.05;2.42;;;8.70;99.90;;;;;;5087956;28;20138;-69
2023/04/29 04:11:02;;;;;;;8.68;3.53;;;8.70;99.90;;;;;;5088179;28;20541;-68
2023/04/29 04:13:31;;;;;;;4.63;3.45;;;8.70;99.90;;;;;;5088178;28;20056;-69
2023/04/29 04:15:56;;;;;;;5.38;2.72;;;8.70;99.90;;;;;;5070634;28;20044;-68
2023/04/29 04:18:23;;;;;;;6.57;2.90;;;8.70;99.90;;;;;;5088450;28;20039;-69
2023/04/29 04:20:48;;;;;;;8.32;3.88;;;8.70;99.90;;;;;;5087780;28;20043;-69
2023/04/29 04:23:14;;;;;;;6.65;2.40;;;8.70;99.90;;;;;;5088097;28;20418;-69
2023/04/29 04:25:47;;;;;;;6.57;2.58;;;8.70;99.90;;;;;;5089656;28;20036;-69
2023/04/29 04:28:12;;;;;;;5.78;2.92;;;8.70;99.90;;;;;;5087370;28;20047;-69
2023/04/29 04:30:38;;;;;;;4.68;2.15;;;8.70;99.90;;;;;;5089137;28;20046;-68
2023/04/29 04:33:04;;;;;;;3.80;2.72;;;8.60;99.90;;;;;;5089057;28;20134;-68
2023/04/29 04:35:30;;;;;;;5.75;2.63;;;8.70;99.90;;;;;;5087477;28;20127;-69
2023/04/29 04:37:56;;;;;;;5.22;2.55;;;8.70;99.90;;;;;;5089118;28;20513;-70
2023/04/29 04:40:22;;;;;;;7.13;2.78;;;8.70;99.90;;;;;;5089285;28;20042;-69
2023/04/29 04:42:47;;;;;;;6.93;3.10;;;8.70;99.90;;;;;;5088407;28;20548;-67
2023/04/29 04:45:13;;;;;;;5.13;2.53;;;8.70;99.90;;;;;;5087704;28;20076;-69
2023/04/29 04:47:40;;;;;;;3.92;1.70;;;8.70;99.90;;;;;;5087833;28;20127;-69
2023/04/29 04:50:07;;;;;;;4.90;2.53;;;8.70;99.90;;;;;;5087322;28;20048;-69
2023/04/29 04:52:33;;;;;;;6.38;2.33;;;8.70;99.90;;;;;;5089213;28;20032;-69
2023/04/29 04:54:59;;;;;;;4.32;2.33;;;8.70;99.90;;;;;;5087593;28;20059;-69
2023/04/29 04:57:25;;;;;;;3.30;2.17;;;8.70;99.90;;;;;;5088815;28;20036;-69
2023/04/29 04:59:51;;;;;;;3.42;2.25;;;8.70;99.90;;;;;;5087897;28;20038;-69
2023/04/29 05:02:16;;;;;;;5.05;2.63;;;8.70;99.90;;;;;;5089152;28;20040;-69
2023/04/29 05:04:43;;;;;;;4.50;2.15;;;8.70;99.90;;;;;;5087286;28;20040;-69
2023/04/29 05:07:09;;;;;;;5.65;3.05;;;8.80;99.90;;;;;;5087460;28;20058;-69
2023/04/29 05:09:36;;;;;;;6.45;2.65;;;8.80;99.90;;;;;;5086787;28;20502;-69
2023/04/29 05:12:02;;;;;;;6.55;2.92;;;8.80;99.90;;;;;;5087204;28;20059;-67
2023/04/29 05:14:28;;;;;;;7.75;3.03;;;8.80;99.90;;;;;;5087326;28;20051;-70
2023/04/29 05:16:58;;;;;;;6.13;2.80;;;8.80;99.90;;;;;;5088366;28;20028;-69
2023/04/29 05:19:24;;;;;;;6.45;3.17;;;8.80;99.90;;;;;;5087707;28;20036;-69
2023/04/29 05:21:50;;;;;;;6.93;2.08;;;8.90;99.90;;;;;;5087842;28;20539;-68
2023/04/29 05:24:16;;;;;;;4.63;2.55;;;8.90;99.90;;;;;;5086985;28;20130;-69
2023/04/29 05:26:42;;;;;;;5.63;2.17;;;8.90;99.90;;;;;;5088891;28;20459;-69
2023/04/29 05:29:09;;;;;;;5.47;2.25;;;8.90;99.90;;;;;;5087599;28;20044;-69
2023/04/29 05:31:36;;;;;;;3.38;1.40;;;9.00;99.90;;;;;;5086761;28;20113;-70
2023/04/29 05:34:01;;;;;;;6.18;2.30;;;9.00;99.90;;;;;;5088758;28;20052;-69
2023/04/29 05:36:27;;;;;;;4.03;2.00;;;9.00;99.90;;;;;;5087096;28;20044;-69
2023/04/29 05:38:53;;;;;;;4.07;2.17;;;9.00;99.90;;;;;;5089158;28;20044;-69
2023/04/29 05:41:20;;;;;;;3.45;1.85;;;9.10;99.90;;;;;;5087247;28;20040;-69
2023/04/29 05:43:45;;;;;;;3.75;2.15;;;9.10;99.90;;;;;;5088632;28;20040;-69
2023/04/29 05:46:11;;;;;;;4.57;1.80;;;9.10;99.90;;;;;;5105795;28;20100;-69
2023/04/29 05:48:37;;;;;;;2.60;1.95;;;9.20;99.90;;;;;;5107946;28;20066;-69
2023/04/29 05:51:03;;;;;;;4.07;1.55;;;9.20;99.90;;;;;;5107942;28;20069;-69
2023/04/29 05:53:30;;;;;;;4.82;1.90;;;9.20;99.90;;;;;;5107494;28;20122;-69
2023/04/29 05:55:56;;;;;;;2.60;1.27;;;9.20;99.90;;;;;;5091209;28;20044;-70
2023/04/29 05:58:22;;;;;;;4.35;1.63;;;9.20;99.90;;;;;;5109723;28;20035;-69
2023/04/29 06:00:48;;;;;;;3.30;2.33;;;9.30;99.90;;;;;;5109275;28;20043;-69
2023/04/29 06:03:14;;;;;;;4.25;1.92;;;9.30;99.90;;;;;;5094889;28;20039;-69
2023/04/29 06:05:40;;;;;;;3.20;1.70;;;9.40;99.90;;;;;;5094587;28;20053;-67
2023/04/29 06:08:06;;;;;;;7.28;1.88;;;9.40;99.90;;;;;;5113267;28;20115;-70
2023/04/29 06:10:32;;;;;;;4.40;2.05;;;9.40;99.90;;;;;;5110677;28;20074;-69
2023/04/29 06:12:58;;;;;;;3.88;1.70;;;9.40;99.90;;;;;;5109896;28;20057;-70
2023/04/29 06:15:24;;;;;;;5.13;1.58;;;9.40;99.90;;;;;;5110744;28;20079;-70
2023/04/29 06:17:50;;;;;;;2.63;1.13;;;9.40;99.90;;;;;;5111061;28;20082;-69
2023/04/29 06:20:16;;;;;;;3.42;1.08;;;9.50;99.90;;;;;;5109318;28;20031;-69
2023/04/29 06:22:42;;;;;;;3.38;1.27;;;9.50;99.90;;;;;;5110719;28;20036;-69
2023/04/29 06:25:08;;;;;;;4.10;1.92;;;9.40;99.90;;;;;;5093981;28;20036;-68
2023/04/29 06:27:34;;;;;;;3.70;1.20;;;9.40;99.90;;;;;;5111347;28;20046;-70
2023/04/29 06:29:59;;;;;;;3.67;1.67;;;9.50;99.90;;;;;;5112356;28;20040;-70
2023/04/29 06:32:25;;;;;;;1.83;1.17;;;9.50;99.90;;;;;;5110698;28;20504;-70
2023/04/29 06:34:51;;;;;;;4.70;1.52;;;9.60;99.90;;;;;;5109740;28;20126;-70
2023/04/29 06:37:17;;;;;;;12.77;1.75;;;9.90;99.90;;;;;;5110503;28;20096;-70
2023/04/29 06:39:42;;;;;;;4.30;1.13;;;10.30;99.90;;;;;;5110824;28;20067;-70
2023/04/29 06:42:09;;;;;;;4.47;2.10;;;10.70;99.90;;;;;;5109674;28;20036;-70
2023/04/29 06:44:34;;;;;;;4.18;1.73;;;11.10;99.90;;;;;;5110144;28;20043;-70
2023/04/29 06:47:00;;;;;;;3.35;1.13;;;11.40;99.90;;;;;;5110104;28;20043;-70
2023/04/29 06:49:26;;;;;;;3.95;1.55;;;11.70;99.90;;;;;;5109515;28;20058;-69
2023/04/29 06:51:52;;;;;;;2.60;1.40;;;11.90;99.90;;;;;;5110345;28;20062;-69
2023/04/29 06:54:17;;;;;;;2.92;1.30;;;12.00;99.90;;;;;;5110247;28;20496;-68
2023/04/29 06:56:43;;;;;;;2.47;1.25;;;12.20;99.90;;;;;;5109465;28;20039;-69
2023/04/29 06:59:11;;;;;;;5.60;1.48;;;12.30;99.90;;;;;;5111266;28;20031;-69
2023/04/29 07:01:37;;;;;;;3.00;1.40;;;12.40;99.90;;;;;;5109409;28;20042;-68
2023/04/29 07:04:04;;;;;;;4.18;1.70;;;12.60;99.90;;;;;;5110128;28;20159;-68
2023/04/29 07:06:29;;;;;;;3.25;1.30;;;12.60;99.90;;;;;;5110021;28;20050;-68
2023/04/29 07:08:55;;;;;;;2.40;0.98;;;12.60;99.90;;;;;;5109483;28;20043;-67
2023/04/29 07:11:23;;;;;;;4.18;0.95;;;12.70;99.90;;;;;;5109624;28;20043;-67
2023/04/29 07:13:51;;;;;;;5.30;2.30;;;12.70;99.90;;;;;;5109711;28;20130;-68
2023/04/29 07:16:19;;;;;;;2.40;1.25;;;12.70;99.90;;;;;;5108946;28;20131;-67
2023/04/29 07:18:45;;;;;;;2.63;1.15;;;12.80;99.90;;;;;;5109622;28;20061;-68
2023/04/29 07:21:10;;;;;;;5.60;1.20;;;12.90;99.90;;;;;;5110909;28;20043;-67
2023/04/29 07:23:36;;;;;;;6.30;1.75;;;13.00;99.90;;;;;;5108934;28;20092;-67
2023/04/29 07:26:12;;;;;;;3.20;1.33;;;13.00;99.90;;;;;;5109393;28;20117;-67
2023/04/29 07:28:38;;;;;;;5.57;1.83;;;13.20;99.90;;;;;;5109350;28;20050;-67
2023/04/29 07:31:05;;;;;;;2.97;1.48;;;13.30;99.90;;;;;;5110290;28;20497;-66
2023/04/29 07:33:30;;;;;;;3.28;1.52;;;13.40;99.90;;;;;;5109653;28;20393;-67
2023/04/29 07:35:56;;;;;;;4.03;1.67;;;13.50;99.90;;;;;;5109583;28;20043;-67
2023/04/29 07:38:22;;;;;;;2.90;1.30;;;13.70;99.90;;;;;;5109138;28;20566;-67
2023/04/29 07:40:48;;;;;;;3.53;1.63;;;13.90;99.90;;;;;;5109163;28;20126;-66
2023/04/29 07:43:13;;;;;;;3.70;1.45;;;14.20;99.90;;;;;;5109146;28;20078;-66
2023/04/29 07:45:39;;;;;;;2.83;1.23;;;14.30;99.90;;;;;;5108755;28;20051;-67
2023/04/29 07:48:05;;;;;;;3.40;1.60;;;14.20;99.90;;;;;;5109159;28;20501;-67
2023/04/29 07:50:35;;;;;;;4.10;1.13;;;14.40;99.90;;;;;;5108989;28;20036;-66
2023/04/29 07:53:01;;;;;;;6.05;1.55;;;14.50;99.90;;;;;;5110476;28;20055;-66
2023/04/29 07:55:30;;;;;;;4.47;1.20;;;14.70;99.90;;;;;;5108890;28;20040;-66
2023/04/29 07:57:57;;;;;;;3.38;1.38;;;14.90;99.90;;;;;;5109351;28;20122;-68
2023/04/29 08:00:23;;;;;;;4.75;1.20;;;15.00;99.90;;;;;;5110284;28;20112;-67
2023/04/29 08:02:56;;;;;;;6.03;1.40;;;15.10;99.90;;;;;;5108733;28;20039;-67
2023/04/29 08:05:22;;;;;;;2.20;1.10;;;15.30;99.90;;;;;;5109348;28;20048;-66
2023/04/29 08:07:51;;;;;;;3.10;1.10;;;15.40;99.90;;;;;;5108676;28;20126;-66
2023/04/29 08:10:18;;;;;;;2.70;1.33;;;15.60;99.90;;;;;;5110061;28;20390;-66
2023/04/29 08:12:48;;;;;;;2.92;1.23;;;15.80;99.90;;;;;;5109955;28;20051;-66
2023/04/29 08:15:14;;;;;;;2.67;1.50;;;16.10;99.90;;;;;;5111062;28;20118;-66
2023/04/29 08:17:40;;;;;;;1.83;1.17;;;16.20;99.90;;;;;;5109020;28;20035;-67
2023/04/29 08:20:07;;;;;;;2.45;1.23;;;16.30;99.90;;;;;;5109592;28;20043;-66
2023/04/29 08:22:33;;;;;;;1.55;1.00;;;16.30;99.90;;;;;;5108565;28;20453;-67
2023/04/29 08:24:59;;;;;;;2.75;1.33;;;16.40;99.90;;;;;;5108014;28;20039;-66
2023/04/29 08:27:25;;;;;;;3.58;1.05;;;16.50;99.90;;;;;;5109038;28;20101;-66
2023/04/29 08:29:51;;;;;;;2.90;1.50;;;16.40;99.90;;;;;;5108311;28;20044;-66
2023/04/29 08:32:17;;;;;;;3.03;1.23;;;16.40;99.90;;;;;;5109657;28;20443;-66
2023/04/29 08:34:43;;;;;;;2.67;1.33;;;16.50;99.90;;;;;;5108912;28;20469;-66
2023/04/29 08:37:10;;;;;;;7.28;1.70;;;16.80;99.90;;;;;;5107972;28;20031;-66
2023/04/29 08:39:36;;;;;;;4.10;1.65;;;17.10;99.90;;;;;;5107456;28;20142;-66
2023/04/29 08:42:09;;;;;;;3.22;1.35;;;17.30;99.90;;;;;;5109036;28;20071;-66
2023/04/29 08:44:35;;;;;;;2.25;0.98;;;17.50;99.90;;;;;;5109447;28;20074;-67
2023/04/29 08:47:02;;;;;;;3.75;1.13;;;17.70;99.90;;;;;;5108859;28;20074;-65
2023/04/29 08:49:32;;;;;;;1.95;1.08;;;17.80;99.90;;;;;;5092379;28;20485;-66
2023/04/29 08:51:58;;;;;;;2.40;0.93;;;17.80;99.90;;;;;;5109373;28;20039;-67
2023/04/29 08:54:24;;;;;;;3.30;0.98;;;17.80;99.90;;;;;;5109971;28;20619;-66
2023/04/29 08:56:51;;;;;;;2.97;1.25;;;17.90;99.90;;;;;;5109599;28;20099;-66
2023/04/29 08:59:17;;;;;;;1.95;0.93;;;18.30;99.90;;;;;;5110548;28;20477;-66
2023/04/29 09:01:49;;;;;;;3.20;1.40;;;18.60;99.90;;;;;;5091662;28;20041;-65
2023/04/29 09:04:30;;;;;;;2.70;1.10;;;18.70;99.90;;;;;;5092286;28;20039;-66
2023/04/29 09:06:58;;;;;;;2.63;0.88;;;18.70;99.90;;;;;;5109279;28;20040;-66
2023/04/29 09:09:24;;;;;;;4.00;1.08;;;18.70;99.90;;;;;;5109087;28;20036;-66
2023/04/29 09:11:51;;;;;;;6.28;1.42;;;18.90;99.90;;;;;;5107734;28;20122;-65
2023/04/29 09:14:18;;;;;;;3.22;1.10;;;19.00;99.90;;;;;;5107477;28;20062;-66
2023/04/29 09:16:47;;;;;;;2.95;1.40;;;19.10;99.90;;;;;;5107396;28;20509;-66
2023/04/29 09:19:29;;;;;;;2.65;1.33;;;19.30;99.90;;;;;;5109896;28;20502;-67
2023/04/29 09:21:56;;;;;;;4.95;1.45;;;19.20;99.90;;;;;;5108353;28;20040;-66
2023/04/29 09:24:27;;;;;;;2.45;1.27;;;18.90;99.90;;;;;;5108370;28;20077;-65
2023/04/29 09:26:54;;;;;;;2.40;1.35;;;18.80;99.90;;;;;;5109279;28;20158;-65
2023/04/29 09:29:20;;;;;;;2.40;0.98;;;18.90;99.90;;;;;;5108701;28;20039;-67
2023/04/29 09:31:46;;;;;;;2.38;1.08;;;19.00;99.90;;;;;;5109195;28;20169;-67
2023/04/29 09:34:13;;;;;;;2.10;1.20;;;19.00;99.90;;;;;;5107443;28;20039;-67
2023/04/29 09:36:44;;;;;;;3.83;1.42;;;18.80;99.90;;;;;;5110088;28;20054;-66
2023/04/29 09:39:11;;;;;;;2.45;1.20;;;18.70;99.90;;;;;;5112855;28;20046;-65
2023/04/29 09:42:01;;;;;;;4.00;1.40;;;18.70;99.90;;;;;;5112545;28;20045;-66
2023/04/29 09:44:34;;;;;;;3.60;0.90;;;18.90;99.90;;;;;;5100742;28;20077;-66
2023/04/29 09:47:05;;;;;;;2.10;1.27;;;19.10;99.90;;;;;;5111166;28;20044;-66
2023/04/29 09:49:43;;;;;;;3.15;1.50;;;19.40;99.90;;;;;;5112736;28;20171;-65
2023/04/29 09:52:12;;;;;;;2.80;1.38;;;19.40;99.90;;;;;;5111362;28;20048;-66
2023/04/29 09:54:39;;;;;;;2.58;1.45;;;19.30;99.90;;;;;;5097454;28;20028;-65
2023/04/29 09:57:07;;;;;;;2.47;1.05;;;19.30;99.90;;;;;;5090480;28;20507;-66
2023/04/29 09:59:40;;;;;;;3.90;1.17;;;19.40;99.90;;;;;;5089916;28;20486;-66
2023/04/29 10:02:17;;;;;;;2.30;1.20;;;19.60;99.90;;;;;;5092403;28;20098;-66
2023/04/29 10:04:56;;;;;;;3.13;1.20;;;19.60;99.90;;;;;;5090835;28;20040;-65
2023/04/29 10:07:23;;;;;;;2.25;1.00;;;19.60;99.90;;;;;;5090969;28;20094;-66
2023/04/29 10:09:49;;;;;;;2.58;1.20;;;19.80;99.90;;;;;;5090514;28;20559;-65
2023/04/29 10:12:17;;;;;;;2.35;1.10;;;19.90;99.90;;;;;;5089740;28;20040;-66
2023/04/29 10:15:06;;;;;;;3.30;0.85;;;19.80;99.90;;;;;;5090382;28;20126;-66
2023/04/29 10:17:36;;;;;;;2.45;1.30;;;20.00;99.90;;;;;;5092066;28;20378;-66
2023/04/29 10:20:07;;;;;;;2.17;1.13;;;20.10;99.90;;;;;;5091601;28;20028;-66
2023/04/29 10:22:43;;;;;;;2.05;1.00;;;20.20;99.90;;;;;;5073499;28;20043;-66
2023/04/29 10:25:10;;;;;;;2.13;0.93;;;20.30;99.90;;;;;;5091357;28;20481;-65
2023/04/29 10:27:36;;;;;;;2.05;1.00;;;20.30;99.90;;;;;;5090643;28;20048;-65
2023/04/29 10:30:03;;;;;;;3.00;1.02;;;20.50;99.90;;;;;;5090546;28;20040;-65
2023/04/29 10:32:30;;;;;;;3.17;1.13;;;20.70;99.90;;;;;;5089591;28;20047;-65
2023/04/29 10:34:58;;;;;;;2.15;1.05;;;20.90;99.90;;;;;;5091550;28;20080;-65
2023/04/29 10:37:25;;;;;;;2.67;1.17;;;21.00;99.90;;;;;;5091515;28;20032;-65
2023/04/29 10:40:06;;;;;;;2.45;0.95;;;20.70;99.90;;;;;;5089708;28;20382;-66
2023/04/29 10:42:45;;;;;;;3.95;1.30;;;20.50;99.20;;;;;;5090206;28;20079;-65
2023/04/29 10:45:27;;;;;;;2.47;0.93;;;20.60;99.10;;;;;;5089939;28;20096;-65
2023/04/29 10:48:05;;;;;;;3.22;0.90;;;20.80;99.90;;;;;;5089032;28;20036;-65
2023/04/29 10:50:46;;;;;;;1.85;0.88;;;20.90;95.10;;;;;;5089782;28;20100;-65
2023/04/29 10:53:15;;;;;;;4.53;1.08;;;20.70;99.00;;;;;;5090532;28;20071;-65
2023/04/29 10:55:42;;;;;;;2.17;0.77;;;20.80;99.90;;;;;;5073006;28;20482;-65
2023/04/29 10:58:45;;;;;;;2.63;1.35;;;20.90;99.90;;;;;;5090007;28;20115;-65
2023/04/29 11:01:16;;;;;;;4.10;1.05;;;21.00;97.50;;;;;;5090722;28;20085;-65
2023/04/29 11:03:53;;;;;;;2.45;1.00;;;20.90;98.70;;;;;;5072850;28;20482;-66
2023/04/29 11:06:22;;;;;;;2.45;0.95;;;20.80;99.60;;;;;;5089943;28;20040;-66
2023/04/29 11:09:02;;;;;;;1.83;1.00;;;20.90;99.90;;;;;;5089134;28;20044;-65
2023/04/29 11:11:41;;;;;;;2.78;0.93;;;20.60;97.20;;;;;;5089933;28;20405;-65
2023/04/29 11:14:08;;;;;;;;;;;20.50;98.00;;;;;;5090358;28;20062;-65
2023/04/29 11:16:36;;;;;;;3.15;1.52;;;20.20;97.60;;;;;;5072503;28;19920;-65
2023/04/29 11:19:07;;;;;;;2.10;1.02;;;20.20;99.90;;;;;;5089659;28;20028;-66
2023/04/29 11:21:37;;;;;;;3.47;1.05;;;20.30;99.10;;;;;;5090106;28;20071;-64
2023/04/29 11:24:05;;;;;;;1.65;0.98;;;20.20;99.10;;;;;;5072279;28;20101;-66
2023/04/29 11:26:35;;;;;;;4.93;0.95;;;20.10;98.20;;;;;;5072188;28;20044;-66
2023/04/29 11:29:00;;;;;;;1.55;0.68;;;20.10;99.40;;;;;;5090229;28;20046;-64
2023/04/29 11:31:30;;;;;;;1.70;0.85;;;20.10;97.50;;;;;;5089019;28;20468;-65
2023/04/29 11:33:56;;;;;;;3.33;1.20;;;19.90;97.20;;;;;;5089015;28;20052;-64
2023/04/29 11:36:22;;;;;;;1.35;0.60;;;19.80;97.20;;;;;;5089922;28;20394;-66
2023/04/29 11:38:48;;;;;;;3.42;0.80;;;19.80;96.90;;;;;;5090532;28;20043;-65
2023/04/29 11:41:14;;;;;;;2.20;0.80;;;19.60;96.70;;;;;;5071899;28;20044;-66
2023/04/29 11:43:40;;;;;;;2.30;0.70;;;19.60;97.00;;;;;;5088572;28;20383;-67
2023/04/29 11:46:13;;;;;;;2.83;0.80;;;19.50;97.10;;;;;;5089224;28;20044;-66
2023/04/29 11:48:47;;;;;;;1.13;0.60;;;19.30;95.50;;;;;;5071220;28;20097;-66
2023/04/29 11:51:14;;;;;;;1.38;0.52;;;19.00;96.70;;;;;;5090090;28;20132;-66
2023/04/29 11:53:40;;;;;;;2.38;0.55;;;19.00;96.20;;;;;;5088803;28;20070;-65
2023/04/29 11:56:10;;;;;;;1.08;0.52;;;18.80;94.80;;;;;;5089137;28;20501;-65
2023/04/29 11:58:36;;;;;;;1.73;0.65;;;18.60;94.50;;;;;;5089037;28;20040;-65
2023/04/29 12:01:03;;;;;;;1.02;0.50;;;18.30;94.70;;;;;;5088511;28;20486;-66
2023/04/29 12:03:31;;;;;;;2.13;0.80;;;18.30;96.60;;;;;;5089299;28;20039;-66
2023/04/29 12:05:57;;;;;;;1.08;0.70;;;18.30;94.70;;;;;;5090096;28;20066;-65
2023/04/29 12:08:23;;;;;;;1.80;0.73;;;18.30;95.20;;;;;;5089928;28;20043;-65
2023/04/29 12:10:50;;;;;;;0.93;0.40;;;18.20;94.40;;;;;;5087902;28;20036;-66
2023/04/29 12:13:17;;;;;;;2.00;0.93;;;18.10;94.70;;;;;;5089456;28;20067;-67
2023/04/29 12:15:49;;;;;;;0.73;0.52;;;18.20;94.10;;;;;;5088136;28;20055;-65
2023/04/29 12:18:19;;;;;;;1.17;0.50;;;18.20;94.80;;;;;;5087679;28;20040;-66
2023/04/29 12:20:47;;;;;;;1.27;0.52;;;18.20;93.30;;;;;;5089849;28;20050;-65
2023/04/29 12:23:13;;;;;;;0.85;0.47;;;18.10;93.50;;;;;;5089687;28;20059;-66
2023/04/29 12:25:40;;;;;;;0.50;0.30;;;18.00;93.70;;;;;;5087364;28;20085;-65
2023/04/29 12:28:11;;;;;;;0.60;0.40;;;18.00;93.30;;;;;;5087995;28;20100;-65
2023/04/29 12:30:37;;;;;;;3.55;0.60;;;18.00;93.50;;;;;;5089047;28;20050;-65
2023/04/29 12:33:03;;;;;;;4.40;0.93;;;18.00;94.50;;;;;;5088218;28;20485;-65
2023/04/29 12:35:30;;;;;;;3.53;1.30;;;17.90;93.90;;;;;;5089356;28;20036;-65
2023/04/29 12:37:58;;;;;;;0.68;0.32;;;17.90;94.80;;;;;;5087404;28;20468;-67
2023/04/29 12:40:24;;;;;;;2.47;1.23;;;17.90;94.60;;;;;;5088080;28;20047;-65
2023/04/29 12:42:52;;;;;;;0.90;0.50;;;17.90;94.50;;;;;;5071320;28;20393;-65
2023/04/29 12:45:32;;;;;;;2.30;0.75;;;17.80;94.90;;;;;;5087584;28;20035;-65
2023/04/29 12:47:59;;;;;;;1.73;0.63;;;17.90;95.50;;;;;;5088267;28;20196;-65
2023/04/29 12:50:36;;;;;;;1.38;0.35;;;18.00;95.60;;;;;;5087894;28;20047;-64
2023/04/29 12:53:07;;;;;;;1.88;0.60;;;18.10;95.70;;;;;;5087502;28;20425;-65
2023/04/29 12:55:37;;;;;;;1.45;0.80;;;18.20;95.70;;;;;;5087559;28;20113;-66
2023/04/29 12:58:03;;;;;;;0.82;0.60;;;18.30;95.90;;;;;;5089147;28;20039;-65